Time;durP1;ratioP1;P1;durP2;ratioP2;P2;SDS_P1;SDS_P2;PMS_P1;PMS_P2;Temp;Humidity;BMP_temperature;BMP_pressure;BME280_temperature;BME280_humidity;BME280_pressure;Samples;Min_cycle;Max_cycle;Signal;HPM_P1;HPM_P2
2023/06/15 00:01:05;;;;;;;;;;;;;;;;;;5076196;28;19979;-71
2023/06/15 00:03:31;;;;;;;;;;;;;;;;;;5076197;28;19956;-71
2023/06/15 00:05:57;;;;;;;;;;;;;;;;;;5076454;28;19960;-71
2023/06/15 00:08:23;;;;;;;;;;;;;;;;;;5075858;28;19962;-71
2023/06/15 00:10:48;;;;;;;;;;;;;;;;;;5076418;28;20376;-71
2023/06/15 00:13:14;;;;;;;;;;;;;;;;;;5075805;28;19955;-71
2023/06/15 00:15:40;;;;;;;;;;;;;;;;;;5076293;28;19955;-71
2023/06/15 00:18:06;;;;;;;;;;;;;;;;;;5074431;28;19984;-71
2023/06/15 00:20:32;;;;;;;;;;;;;;;;;;5076206;28;20038;-71
2023/06/15 00:22:58;;;;;;;;;;;;;;;;;;5075507;28;20340;-71
2023/06/15 00:25:24;;;;;;;;;;;;;;;;;;5075581;28;19956;-71
2023/06/15 00:27:50;;;;;;;;;;;;;;;;;;5075534;28;20428;-71
2023/06/15 00:30:17;;;;;;;;;;;;;;;;;;5075441;28;19991;-71
2023/06/15 00:32:43;;;;;;;;;;;;;;;;;;5076307;28;19955;-71
2023/06/15 00:35:09;;;;;;;;;;;;;;;;;;5075321;28;19978;-71
2023/06/15 00:37:35;;;;;;;;;;;;;;;;;;5075331;28;19962;-71
2023/06/15 00:40:01;;;;;;;;;;;;;;;;;;5075806;28;20401;-71
2023/06/15 00:42:26;;;;;;;;;;;;;;;;;;5074921;28;20074;-71
2023/06/15 00:44:52;;;;;;;;;;;;;;;;;;5075756;28;19966;-71
2023/06/15 00:47:18;;;;;;;;;;;;;;;;;;5075121;28;19963;-71
2023/06/15 00:49:44;;;;;;;;;;;;;;;;;;5075078;28;19956;-71
2023/06/15 00:52:10;;;;;;;;;;;;;;;;;;5075345;28;20040;-71
2023/06/15 00:54:40;;;;;;;;;;;;;;;;;;5074938;28;20042;-71
2023/06/15 00:57:06;;;;;;;;;;;;;;;;;;5073644;28;19959;-71
2023/06/15 00:59:32;;;;;;;;;;;;;;;;;;5075136;28;19956;-71
2023/06/15 01:01:58;;;;;;;;;;;;;;;;;;5075044;28;19979;-71
2023/06/15 01:04:24;;;;;;;;;;;;;;;;;;5074207;28;19963;-71
2023/06/15 01:06:51;;;;;;;;;;;;;;;;;;5074778;28;19956;-71
2023/06/15 01:09:17;;;;;;;;;;;;;;;;;;5074975;28;19959;-71
2023/06/15 01:11:43;;;;;;;;;;;;;;;;;;5074578;28;19956;-71
2023/06/15 01:14:09;;;;;;;;;;;;;;;;;;5074578;28;19956;-71
2023/06/15 01:16:37;;;;;;;;;;;;;;;;;;5074588;28;19991;-71
2023/06/15 01:19:03;;;;;;;;;;;;;;;;;;5074486;28;19955;-71
2023/06/15 01:21:29;;;;;;;;;;;;;;;;;;5074612;28;19975;-71
2023/06/15 01:23:55;;;;;;;;;;;;;;;;;;5074379;28;19959;-71
2023/06/15 01:26:24;;;;;;;;;;;;;;;;;;5074402;28;19963;-71
2023/06/15 01:28:50;;;;;;;;;;;;;;;;;;5074572;28;20313;-71
2023/06/15 01:31:15;;;;;;;;;;;;;;;;;;5074545;28;19962;-71
2023/06/15 01:33:41;;;;;;;;;;;;;;;;;;5074658;28;19956;-71
2023/06/15 01:36:07;;;;;;;;;;;;;;;;;;5074202;28;20050;-71
2023/06/15 01:38:33;;;;;;;;;;;;;;;;;;5074401;28;19962;-71
2023/06/15 01:40:59;;;;;;;;;;;;;;;;;;5074000;28;19963;-71
2023/06/15 01:43:25;;;;;;;;;;;;;;;;;;5074052;28;20069;-71
2023/06/15 01:45:51;;;;;;;;;;;;;;;;;;5074273;28;19966;-71
2023/06/15 01:48:17;;;;;;;;;;;;;;;;;;5073925;28;20321;-71
2023/06/15 01:50:43;;;;;;;;;;;;;;;;;;5073902;28;19956;-71
2023/06/15 01:53:09;;;;;;;;;;;;;;;;;;5073885;28;19960;-71
2023/06/15 01:55:35;;;;;;;;;;;;;;;;;;5074463;28;20364;-71
2023/06/15 01:58:01;;;;;;;;;;;;;;;;;;5073849;28;20001;-71
2023/06/15 02:00:27;;;;;;;;;;;;;;;;;;5073797;28;19955;-71
2023/06/15 02:02:53;;;;;;;;;;;;;;;;;;5074239;28;20437;-71
2023/06/15 02:05:19;;;;;;;;;;;;;;;;;;5074002;28;20036;-71
2023/06/15 02:07:45;;;;;;;;;;;;;;;;;;5073977;28;19955;-71
2023/06/15 02:10:10;;;;;;;;;;;;;;;;;;5073701;28;19955;-71
2023/06/15 02:12:36;;;;;;;;;;;;;;;;;;5074159;28;19998;-71
2023/06/15 02:15:02;;;;;;;;;;;;;;;;;;5073657;28;19999;-71
2023/06/15 02:17:31;;;;;;;;;;;;;;;;;;5073446;28;20054;-71
2023/06/15 02:19:58;;;;;;;;;;;;;;;;;;5073571;28;20093;-71
2023/06/15 02:22:24;;;;;;;;;;;;;;;;;;5072021;28;20074;-71
2023/06/15 02:24:50;;;;;;;;;;;;;;;;;;5073563;28;20062;-71
2023/06/15 02:27:15;;;;;;;;;;;;;;;;;;5073783;28;19955;-71
2023/06/15 02:29:41;;;;;;;;;;;;;;;;;;5073816;28;19955;-71
2023/06/15 02:32:09;;;;;;;;;;;;;;;;;;5073569;28;20026;-71
2023/06/15 02:34:36;;;;;;;;;;;;;;;;;;5073859;28;20351;-71
2023/06/15 02:37:02;;;;;;;;;;;;;;;;;;5074087;28;19962;-71
2023/06/15 02:39:28;;;;;;;;;;;;;;;;;;5073698;28;19959;-71
2023/06/15 02:41:54;;;;;;;;;;;;;;;;;;5073327;28;19975;-71
2023/06/15 02:44:21;;;;;;;;;;;;;;;;;;5073037;28;20045;-71
2023/06/15 02:46:46;;;;;;;;;;;;;;;;;;5073369;28;19963;-71
2023/06/15 02:49:12;;;;;;;;;;;;;;;;;;5073352;28;19956;-72
2023/06/15 02:51:38;;;;;;;;;;;;;;;;;;5073888;28;20429;-71
2023/06/15 02:54:05;;;;;;;;;;;;;;;;;;5072007;28;20054;-71
2023/06/15 02:56:30;;;;;;;;;;;;;;;;;;5073843;28;20009;-71
2023/06/15 02:58:57;;;;;;;;;;;;;;;;;;5073223;28;20396;-71
2023/06/15 03:01:23;;;;;;;;;;;;;;;;;;5073393;28;19975;-71
2023/06/15 03:03:49;;;;;;;;;;;;;;;;;;5073247;28;19959;-71
2023/06/15 03:06:15;;;;;;;;;;;;;;;;;;5073191;28;20310;-71
2023/06/15 03:08:42;;;;;;;;;;;;;;;;;;5073188;28;19995;-71
2023/06/15 03:11:08;;;;;;;;;;;;;;;;;;5073450;28;20050;-71
2023/06/15 03:13:34;;;;;;;;;;;;;;;;;;5073089;28;20002;-71
2023/06/15 03:16:06;;;;;;;;;;;;;;;;;;5073091;28;19956;-71
2023/06/15 03:18:32;;;;;;;;;;;;;;;;;;5073405;28;19955;-71
2023/06/15 03:20:58;;;;;;;;;;;;;;;;;;5072920;28;20188;-71
2023/06/15 03:23:24;;;;;;;;;;;;;;;;;;5073552;28;19956;-71
2023/06/15 03:25:51;;;;;;;;;;;;;;;;;;5072978;28;19956;-71
2023/06/15 03:28:17;;;;;;;;;;;;;;;;;;5074309;28;20050;-71
2023/06/15 03:30:46;;;;;;;;;;;;;;;;;;5076830;28;20489;-71
2023/06/15 03:33:13;;;;;;;;;;;;;;;;;;5077651;28;20468;-71
2023/06/15 03:35:39;;;;;;;;;;;;;;;;;;5076462;28;20345;-71
2023/06/15 03:38:06;;;;;;;;;;;;;;;;;;5076477;28;19956;-71
2023/06/15 03:40:32;;;;;;;;;;;;;;;;;;5076489;28;19956;-71
2023/06/15 03:42:57;;;;;;;;;;;;;;;;;;5076278;28;20352;-71
2023/06/15 03:45:23;;;;;;;;;;;;;;;;;;5076633;28;20002;-71
2023/06/15 03:47:49;;;;;;;;;;;;;;;;;;5076233;28;19955;-71
2023/06/15 03:50:15;;;;;;;;;;;;;;;;;;5076267;28;19990;-71
2023/06/15 03:52:41;;;;;;;;;;;;;;;;;;5076175;28;19956;-71
2023/06/15 03:55:07;;;;;;;;;;;;;;;;;;5076126;28;19962;-71
2023/06/15 03:57:33;;;;;;;;;;;;;;;;;;5076415;28;19955;-71
2023/06/15 03:59:59;;;;;;;;;;;;;;;;;;5076296;28;19959;-71
2023/06/15 04:02:25;;;;;;;;;;;;;;;;;;5076186;28;20425;-71
2023/06/15 04:04:52;;;;;;;;;;;;;;;;;;5076229;28;19956;-71
2023/06/15 04:07:19;;;;;;;;;;;;;;;;;;5076479;28;19960;-71
2023/06/15 04:09:45;;;;;;;;;;;;;;;;;;5075915;28;19956;-71
2023/06/15 04:12:11;;;;;;;;;;;;;;;;;;5076363;28;20368;-71
2023/06/15 04:14:37;;;;;;;;;;;;;;;;;;5076041;28;19956;-71
2023/06/15 04:17:03;;;;;;;;;;;;;;;;;;5075763;28;19979;-71
2023/06/15 04:19:29;;;;;;;;;;;;;;;;;;5075778;28;19960;-71
2023/06/15 04:21:55;;;;;;;;;;;;;;;;;;5075916;28;19982;-71
2023/06/15 04:24:21;;;;;;;;;;;;;;;;;;5075564;28;19955;-71
2023/06/15 04:26:47;;;;;;;;;;;;;;;;;;5075891;28;19979;-71
2023/06/15 04:29:13;;;;;;;;;;;;;;;;;;5075520;28;19962;-71
2023/06/15 04:31:40;;;;;;;;;;;;;;;;;;5075473;28;19959;-71
2023/06/15 04:34:06;;;;;;;;;;;;;;;;;;5075915;28;20437;-71
2023/06/15 04:36:38;;;;;;;;;;;;;;;;;;5075437;28;19955;-71
2023/06/15 04:39:04;;;;;;;;;;;;;;;;;;5073298;28;20421;-71
2023/06/15 04:41:31;;;;;;;;;;;;;;;;;;5075130;28;19982;-71
2023/06/15 04:43:57;;;;;;;;;;;;;;;;;;5075035;28;20087;-71
2023/06/15 04:46:23;;;;;;;;;;;;;;;;;;5075440;28;19991;-71
2023/06/15 04:48:49;;;;;;;;;;;;;;;;;;5075161;28;20333;-71
2023/06/15 04:51:15;;;;;;;;;;;;;;;;;;5075121;28;19979;-71
2023/06/15 04:53:44;;;;;;;;;;;;;;;;;;5073726;28;20402;-71
2023/06/15 04:56:10;;;;;;;;;;;;;;;;;;5075554;28;19963;-71
2023/06/15 04:58:36;;;;;;;;;;;;;;;;;;5074961;28;20436;-71
2023/06/15 05:01:02;;;;;;;;;;;;;;;;;;5075343;28;19955;-71
2023/06/15 05:03:28;;;;;;;;;;;;;;;;;;5075350;28;19964;-71
2023/06/15 05:05:54;;;;;;;;;;;;;;;;;;5075026;28;19963;-71
2023/06/15 05:08:20;;;;;;;;;;;;;;;;;;5074767;28;19959;-71
2023/06/15 05:10:46;;;;;;;;;;;;;;;;;;5074629;28;19967;-71
2023/06/15 05:13:11;;;;;;;;;;;;;;;;;;5074633;28;19963;-71
2023/06/15 05:15:37;;;;;;;;;;;;;;;;;;5074576;28;19959;-71
2023/06/15 05:18:03;;;;;;;;;;;;;;;;;;5074812;28;19955;-71
2023/06/15 05:20:30;;;;;;;;;;;;;;;;;;5073173;28;20344;-71
2023/06/15 05:22:56;;;;;;;;;;;;;;;;;;5074972;28;19975;-71
2023/06/15 05:25:22;;;;;;;;;;;;;;;;;;5074453;28;19962;-71
2023/06/15 05:27:48;;;;;;;;;;;;;;;;;;5074285;28;20414;-71
2023/06/15 05:30:14;;;;;;;;;;;;;;;;;;5074299;28;19995;-71
2023/06/15 05:32:43;;;;;;;;;;;;;;;;;;5074378;28;20054;-71
2023/06/15 05:35:09;;;;;;;;;;;;;;;;;;5074191;28;19976;-71
2023/06/15 05:37:35;;;;;;;;;;;;;;;;;;5074446;28;19960;-71
2023/06/15 05:40:01;;;;;;;;;;;;;;;;;;5074081;28;20429;-71
2023/06/15 05:42:27;;;;;;;;;;;;;;;;;;5074289;28;19975;-71
2023/06/15 05:44:52;;;;;;;;;;;;;;;;;;5074318;28;20009;-71
2023/06/15 05:47:18;;;;;;;;;;;;;;;;;;5073934;28;19959;-71
2023/06/15 05:49:44;;;;;;;;;;;;;;;;;;5072649;28;19960;-71
2023/06/15 05:52:10;;;;;;;;;;;;;;;;;;5074119;28;19959;-71
2023/06/15 05:54:36;;;;;;;;;;;;;;;;;;5074131;28;19955;-71
2023/06/15 05:57:03;;;;;;;;;;;;;;;;;;5074164;28;19998;-71
2023/06/15 05:59:28;;;;;;;;;;;;;;;;;;5073832;28;19959;-71
2023/06/15 06:01:54;;;;;;;;;;;;;;;;;;5073988;28;19976;-71
2023/06/15 06:04:20;;;;;;;;;;;;;;;;;;5073747;28;19978;-71
2023/06/15 06:06:46;;;;;;;;;;;;;;;;;;5073762;28;19956;-71
2023/06/15 06:09:13;;;;;;;;;;;;;;;;;;5073986;28;19955;-71
2023/06/15 06:11:39;;;;;;;;;;;;;;;;;;5074013;28;19959;-71
2023/06/15 06:14:05;;;;;;;;;;;;;;;;;;5074243;28;20046;-71
2023/06/15 06:16:31;;;;;;;;;;;;;;;;;;5073603;28;19955;-71
2023/06/15 06:18:57;;;;;;;;;;;;;;;;;;5073925;28;19966;-69
2023/06/15 06:21:23;;;;;;;;;;;;;;;;;;5072011;28;20452;-70
2023/06/15 06:23:49;;;;;;;;;;;;;;;;;;5073571;28;19960;-70
2023/06/15 06:26:14;;;;;;;;;;;;;;;;;;5073830;28;20005;-70
2023/06/15 06:28:40;;;;;;;;;;;;;;;;;;5073533;28;19973;-71
2023/06/15 06:31:06;;;;;;;;;;;;;;;;;;5073822;28;19956;-71
2023/06/15 06:33:32;;;;;;;;;;;;;;;;;;5074005;28;19991;-69
2023/06/15 06:35:58;;;;;;;;;;;;;;;;;;5074042;28;19970;-69
2023/06/15 06:38:24;;;;;;;;;;;;;;;;;;5073637;28;19960;-68
2023/06/15 06:40:50;;;;;;;;;;;;;;;;;;5073826;28;20004;-69
2023/06/15 06:43:16;;;;;;;;;;;;;;;;;;5073496;28;20456;-69
2023/06/15 06:45:42;;;;;;;;;;;;;;;;;;5073652;28;19956;-67
2023/06/15 06:48:08;;;;;;;;;;;;;;;;;;5073605;28;20417;-68
2023/06/15 06:50:34;;;;;;;;;;;;;;;;;;5073293;28;20040;-67
2023/06/15 06:53:00;;;;;;;;;;;;;;;;;;5060138;28;19964;-68
2023/06/15 06:55:26;;;;;;;;;;;;;;;;;;5073495;28;19956;-70
2023/06/15 06:57:51;;;;;;;;;;;;;;;;;;5066515;28;20503;-68
2023/06/15 07:00:17;;;;;;;;;;;;;;;;;;5072843;28;20011;-71
2023/06/15 07:02:43;;;;;;;;;;;;;;;;;;5072769;28;20360;-68
2023/06/15 07:05:09;;;;;;;;;;;;;;;;;;5076485;28;19963;-70
2023/06/15 07:07:35;;;;;;;;;;;;;;;;;;5075975;28;20395;-68
2023/06/15 07:10:01;;;;;;;;;;;;;;;;;;5077421;28;20017;-67
2023/06/15 07:12:27;;;;;;;;;;;;;;;;;;5076162;28;19959;-66
2023/06/15 07:14:55;;;;;;;;;;;;;;;;;;5075631;28;19992;-69
2023/06/15 07:17:20;;;;;;;;;;;;;;;;;;5076504;28;19970;-72
2023/06/15 07:19:46;;;;;;;;;;;;;;;;;;5076520;28;20409;-71
2023/06/15 07:22:12;;;;;;;;;;;;;;;;;;5076468;28;20031;-70
2023/06/15 07:24:38;;;;;;;;;;;;;;;;;;5076660;28;20050;-67
2023/06/15 07:27:04;;;;;;;;;;;;;;;;;;5076125;28;19970;-70
2023/06/15 07:29:30;;;;;;;;;;;;;;;;;;5076207;28;19964;-70
2023/06/15 07:31:56;;;;;;;;;;;;;;;;;;5075643;28;19963;-68
2023/06/15 07:34:23;;;;;;;;;;;;;;;;;;5076677;28;20025;-68
2023/06/15 07:36:49;;;;;;;;;;;;;;;;;;5076169;28;20391;-68
2023/06/15 07:39:15;;;;;;;;;;;;;;;;;;5076195;28;19960;-67
2023/06/15 07:41:41;;;;;;;;;;;;;;;;;;5076234;28;20028;-71
2023/06/15 07:44:11;;;;;;;;;;;;;;;;;;5075855;28;19991;-70
2023/06/15 07:46:37;;;;;;;;;;;;;;;;;;5074608;28;20504;-71
2023/06/15 07:49:03;;;;;;;;;;;;;;;;;;5076282;28;19961;-70
2023/06/15 07:51:29;;;;;;;;;;;;;;;;;;5075877;28;20397;-70
2023/06/15 07:53:55;;;;;;;;;;;;;;;;;;5076346;28;20004;-71
2023/06/15 07:56:21;;;;;;;;;;;;;;;;;;5075838;28;20002;-71
2023/06/15 07:58:47;;;;;;;;;;;;;;;;;;5075252;28;20046;-71
2023/06/15 08:01:13;;;;;;;;;;;;;;;;;;5074819;28;19973;-70
2023/06/15 08:03:39;;;;;;;;;;;;;;;;;;5075139;28;19971;-73
2023/06/15 08:06:05;;;;;;;;;;;;;;;;;;5076006;28;20017;-71
2023/06/15 08:08:30;;;;;;;;;;;;;;;;;;5076197;28;19956;-69
2023/06/15 08:10:56;;;;;;;;;;;;;;;;;;5075056;28;20472;-69
2023/06/15 08:13:22;;;;;;;;;;;;;;;;;;5075108;28;19968;-71
2023/06/15 08:15:48;;;;;;;;;;;;;;;;;;5075130;28;20046;-72
2023/06/15 08:18:14;;;;;;;;;;;;;;;;;;5075708;28;19998;-71
2023/06/15 08:20:40;;;;;;;;;;;;;;;;;;5074946;28;19967;-70
2023/06/15 08:23:06;;;;;;;;;;;;;;;;;;5074534;28;19986;-71
2023/06/15 08:25:34;;;;;;;;;;;;;;;;;;5075426;28;19959;-70
2023/06/15 08:28:00;;;;;;;;;;;;;;;;;;5073475;28;20337;-71
2023/06/15 08:30:26;;;;;;;;;;;;;;;;;;5074708;28;19960;-71
2023/06/15 08:32:52;;;;;;;;;;;;;;;;;;5074315;28;20502;-70
2023/06/15 08:35:18;;;;;;;;;;;;;;;;;;5068017;28;19984;-71
2023/06/15 08:37:44;;;;;;;;;;;;;;;;;;5074851;28;20349;-68
2023/06/15 08:40:10;;;;;;;;;;;;;;;;;;5074655;28;19965;-68
2023/06/15 08:42:36;;;;;;;;;;;;;;;;;;5072430;28;19980;-68
2023/06/15 08:45:02;;;;;;;;;;;;;;;;;;5075534;28;20395;-68
2023/06/15 08:47:27;;;;;;;;;;;;;;;;;;5075151;28;19978;-68
2023/06/15 08:49:53;;;;;;;;;;;;;;;;;;5075399;28;19962;-68
2023/06/15 08:52:20;;;;;;;;;;;;;;;;;;5075082;28;20021;-69
2023/06/15 08:54:46;;;;;;;;;;;;;;;;;;5073940;28;19982;-69
2023/06/15 08:57:12;;;;;;;;;;;;;;;;;;5073744;28;20441;-67
2023/06/15 08:59:38;;;;;;;;;;;;;;;;;;5073632;28;19959;-71
2023/06/15 09:02:06;;;;;;;;;;;;;;;;;;5073453;28;20025;-68
2023/06/15 09:04:32;;;;;;;;;;;;;;;;;;5075096;28;20020;-67
2023/06/15 09:06:58;;;;;;;;;;;;;;;;;;5074612;28;20361;-68
2023/06/15 09:09:25;;;;;;;;;;;;;;;;;;5074982;28;19963;-67
2023/06/15 09:11:51;;;;;;;;;;;;;;;;;;5074050;28;19968;-68
2023/06/15 09:14:17;;;;;;;;;;;;;;;;;;5074587;28;19955;-69
2023/06/15 09:16:42;;;;;;;;;;;;;;;;;;5074049;28;19964;-69
2023/06/15 09:19:13;;;;;;;;;;;;;;;;;;5074365;28;19974;-68
2023/06/15 09:21:39;;;;;;;;;;;;;;;;;;5072369;28;20106;-70
2023/06/15 09:24:05;;;;;;;;;;;;;;;;;;5073030;28;20014;-68
2023/06/15 09:26:32;;;;;;;;;;;;;;;;;;5073098;28;19962;-69
2023/06/15 09:28:58;;;;;;;;;;;;;;;;;;5072642;28;19962;-68
2023/06/15 09:31:24;;;;;;;;;;;;;;;;;;5072447;28;19983;-68
2023/06/15 09:33:50;;;;;;;;;;;;;;;;;;5074344;28;20330;-68
2023/06/15 09:36:16;;;;;;;;;;;;;;;;;;5073446;28;19970;-67
2023/06/15 09:38:42;;;;;;;;;;;;;;;;;;5073814;28;20077;-67
2023/06/15 09:41:08;;;;;;;;;;;;;;;;;;5072803;28;20340;-67
2023/06/15 09:43:34;;;;;;;;;;;;;;;;;;5073708;28;20085;-66
2023/06/15 09:46:00;;;;;;;;;;;;;;;;;;5074060;28;20051;-67
2023/06/15 09:48:26;;;;;;;;;;;;;;;;;;5073632;28;20433;-67
2023/06/15 09:50:52;;;;;;;;;;;;;;;;;;5072693;28;19960;-68
2023/06/15 09:53:18;;;;;;;;;;;;;;;;;;5062334;28;19986;-70
2023/06/15 09:55:45;;;;;;;;;;;;;;;;;;5073598;28;20326;-69
2023/06/15 09:58:11;;;;;;;;;;;;;;;;;;5071962;28;19970;-73
2023/06/15 10:00:37;;;;;;;;;;;;;;;;;;5073645;28;19954;-70
2023/06/15 10:03:03;;;;;;;;;;;;;;;;;;5073398;28;19985;-70
2023/06/15 10:05:29;;;;;;;;;;;;;;;;;;5073242;28;20444;-67
2023/06/15 10:07:55;;;;;;;;;;;;;;;;;;5073253;28;19963;-68
2023/06/15 10:10:21;;;;;;;;;;;;;;;;;;5073699;28;20375;-69
2023/06/15 10:12:47;;;;;;;;;;;;;;;;;;5071758;28;19971;-67
2023/06/15 10:15:14;;;;;;;;;;;;;;;;;;5072675;28;19992;-69
2023/06/15 10:17:40;;;;;;;;;;;;;;;;;;5072894;28;20029;-68
2023/06/15 10:20:07;;;;;;;;;;;;;;;;;;5073680;28;19967;-70
2023/06/15 10:22:33;;;;;;;;;;;;;;;;;;5073036;28;20010;-70
2023/06/15 10:24:59;;;;;;;;;;;;;;;;;;5073345;28;19968;-68
2023/06/15 10:27:25;;;;;;;;;;;;;;;;;;5071932;28;19962;-69
2023/06/15 10:29:51;;;;;;;;;;;;;;;;;;5072680;28;20426;-72
2023/06/15 10:32:17;;;;;;;;;;;;;;;;;;5073049;28;20062;-71
2023/06/15 10:34:43;;;;;;;;;;;;;;;;;;5073564;28;20033;-68
2023/06/15 10:37:09;;;;;;;;;;;;;;;;;;5073578;28;19967;-67
2023/06/15 10:39:35;;;;;;;;;;;;;;;;;;5076571;28;20482;-70
2023/06/15 10:42:01;;;;;;;;;;;;;;;;;;5076507;28;20360;-71
2023/06/15 10:44:27;;;;;;;;;;;;;;;;;;5076592;28;20433;-67
2023/06/15 10:46:53;;;;;;;;;;;;;;;;;;5076797;28;20053;-68
2023/06/15 10:49:19;;;;;;;;;;;;;;;;;;5076996;28;19966;-66
2023/06/15 10:51:45;;;;;;;;;;;;;;;;;;5076452;28;19960;-67
2023/06/15 10:54:11;;;;;;;;;;;;;;;;;;5076528;28;19971;-67
2023/06/15 10:56:37;;;;;;;;;;;;;;;;;;5076075;28;19995;-68
2023/06/15 10:59:07;;;;;;;;;;;;;;;;;;5077495;28;19959;-66
2023/06/15 11:01:33;;;;;;;;;;;;;;;;;;5076322;28;20002;-68
2023/06/15 11:03:59;;;;;;;;;;;;;;;;;;5075866;28;19963;-69
2023/06/15 11:06:25;;;;;;;;;;;;;;;;;;5076646;28;19963;-71
2023/06/15 11:08:51;;;;;;;;;;;;;;;;;;5076051;28;19959;-72
2023/06/15 11:11:17;;;;;;;;;;;;;;;;;;5076028;28;19959;-73
2023/06/15 11:13:43;;;;;;;;;;;;;;;;;;5076166;28;20097;-73
2023/06/15 11:16:09;;;;;;;;;;;;;;;;;;5075686;28;19971;-73
2023/06/15 11:18:35;;;;;;;;;;;;;;;;;;5076863;28;19959;-65
2023/06/15 11:21:02;;;;;;;;;;;;;;;;;;5075720;28;19955;-67
2023/06/15 11:23:29;;;;;;;;;;;;;;;;;;5073863;28;20010;-67
2023/06/15 11:25:55;;;;;;;;;;;;;;;;;;5075458;28;19954;-65
2023/06/15 11:28:22;;;;;;;;;;;;;;;;;;5075630;28;20494;-67
2023/06/15 11:30:48;;;;;;;;;;;;;;;;;;5075799;28;20016;-66
2023/06/15 11:33:13;;;;;;;;;;;;;;;;;;5075594;28;19954;-67
2023/06/15 11:35:39;;;;;;;;;;;;;;;;;;5076766;28;20314;-66
2023/06/15 11:38:05;;;;;;;;;;;;;;;;;;5076478;28;19955;-65
2023/06/15 11:40:31;;;;;;;;;;;;;;;;;;5077005;28;20385;-65
2023/06/15 11:42:58;;;;;;;;;;;;;;;;;;5076327;28;20037;-67
2023/06/15 11:45:25;;;;;;;;;;;;;;;;;;5076428;28;20006;-66
2023/06/15 11:47:51;;;;;;;;;;;;;;;;;;5076389;28;20002;-66
2023/06/15 11:50:20;;;;;;;;;;;;;;;;;;5076156;28;20341;-66
2023/06/15 11:52:46;;;;;;;;;;;;;;;;;;5076228;28;19955;-66
2023/06/15 11:55:13;;;;;;;;;;;;;;;;;;5076481;28;20037;-66
2023/06/15 11:57:39;;;;;;;;;;;;;;;;;;5076088;28;19968;-64
2023/06/15 12:00:07;;;;;;;;;;;;;;;;;;5076341;28;19956;-66
2023/06/15 12:02:33;;;;;;;;;;;;;;;;;;5076033;28;19979;-66
2023/06/15 12:04:59;;;;;;;;;;;;;;;;;;5076004;28;19959;-67
2023/06/15 12:07:26;;;;;;;;;;;;;;;;;;5075994;28;20001;-67
2023/06/15 12:09:52;;;;;;;;;;;;;;;;;;5076273;28;19961;-66
2023/06/15 12:12:18;;;;;;;;;;;;;;;;;;5075889;28;19956;-67
2023/06/15 12:14:45;;;;;;;;;;;;;;;;;;5075834;28;19962;-66
2023/06/15 12:17:11;;;;;;;;;;;;;;;;;;5076396;28;19962;-67
2023/06/15 12:19:37;;;;;;;;;;;;;;;;;;5075794;28;20367;-66
2023/06/15 12:22:03;;;;;;;;;;;;;;;;;;5076221;28;19976;-66
2023/06/15 12:24:29;;;;;;;;;;;;;;;;;;5075634;28;20322;-67
2023/06/15 12:26:57;;;;;;;;;;;;;;;;;;5076190;28;19962;-67
2023/06/15 12:29:23;;;;;;;;;;;;;;;;;;5075553;28;20058;-67
2023/06/15 12:31:49;;;;;;;;;;;;;;;;;;5075818;28;19960;-65
2023/06/15 12:34:15;;;;;;;;;;;;;;;;;;5075520;28;19986;-67
2023/06/15 12:36:41;;;;;;;;;;;;;;;;;;5074345;28;20456;-70
2023/06/15 12:39:07;;;;;;;;;;;;;;;;;;5075599;28;20363;-70
2023/06/15 12:41:33;;;;;;;;;;;;;;;;;;5074918;28;21839;-68
2023/06/15 12:43:59;;;;;;;;;;;;;;;;;;5074546;28;20372;-66
2023/06/15 12:46:25;;;;;;;;;;;;;;;;;;5073673;28;19967;-65
2023/06/15 12:48:51;;;;;;;;;;;;;;;;;;5074841;28;19966;-66
2023/06/15 12:51:17;;;;;;;;;;;;;;;;;;5074884;28;20015;-69
2023/06/15 12:53:42;;;;;;;;;;;;;;;;;;5074464;28;19963;-67
2023/06/15 12:56:08;;;;;;;;;;;;;;;;;;5075021;28;20011;-68
2023/06/15 12:58:34;;;;;;;;;;;;;;;;;;5067170;28;20005;-68
2023/06/15 13:01:00;;;;;;;;;;;;;;;;;;5053880;28;19963;-66
2023/06/15 13:03:26;;;;;;;;;;;;;;;;;;5055120;28;19976;-67
2023/06/15 13:05:53;;;;;;;;;;;;;;;;;;5054848;28;19955;-66
2023/06/15 13:08:19;;;;;;;;;;;;;;;;;;5062771;28;20006;-67
2023/06/15 13:10:45;;;;;;;;;;;;;;;;;;5074712;28;19967;-70
2023/06/15 13:13:11;;;;;;;;;;;;;;;;;;5074308;28;19964;-68
2023/06/15 13:15:37;;;;;;;;;;;;;;;;;;5073086;28;20437;-65
2023/06/15 13:18:03;;;;;;;;;;;;;;;;;;5071345;28;19996;-68
2023/06/15 13:20:29;;;;;;;;;;;;;;;;;;5074113;28;19964;-68
2023/06/15 13:22:55;;;;;;;;;;;;;;;;;;5073930;28;20400;-71
2023/06/15 13:25:21;;;;;;;;;;;;;;;;;;5074714;28;19986;-69
2023/06/15 13:27:47;;;;;;;;;;;;;;;;;;5073673;28;19961;-70
2023/06/15 13:30:13;;;;;;;;;;;;;;;;;;5073823;28;19999;-72
2023/06/15 13:32:39;;;;;;;;;;;;;;;;;;5073480;28;19959;-71
2023/06/15 13:35:05;;;;;;;;;;;;;;;;;;5074286;28;20001;-72
2023/06/15 13:37:31;;;;;;;;;;;;;;;;;;5072905;28;19959;-72
2023/06/15 13:39:57;;;;;;;;;;;;;;;;;;5073957;28;20336;-72
2023/06/15 13:42:23;;;;;;;;;;;;;;;;;;5072293;28;19987;-71
2023/06/15 13:44:49;;;;;;;;;;;;;;;;;;5073343;28;19973;-71
2023/06/15 13:47:18;;;;;;;;;;;;;;;;;;5073546;28;19967;-71
2023/06/15 13:49:44;;;;;;;;;;;;;;;;;;5065168;28;19956;-71
2023/06/15 13:52:10;;;;;;;;;;;;;;;;;;5072164;28;19986;-71
2023/06/15 13:54:36;;;;;;;;;;;;;;;;;;5060038;28;19966;-71
2023/06/15 13:57:02;;;;;;;;;;;;;;;;;;5070133;28;19978;-67
2023/06/15 13:59:30;;;;;;;;;;;;;;;;;;5073864;28;20390;-68
2023/06/15 14:01:56;;;;;;;;;;;;;;;;;;5073619;28;20349;-69
2023/06/15 14:04:22;;;;;;;;;;;;;;;;;;5074383;28;20017;-68
2023/06/15 14:06:48;;;;;;;;;;;;;;;;;;5072957;28;20417;-71
2023/06/15 14:09:14;;;;;;;;;;;;;;;;;;5073188;28;19963;-70
2023/06/15 14:11:40;;;;;;;;;;;;;;;;;;5074054;28;19956;-72
2023/06/15 14:14:06;;;;;;;;;;;;;;;;;;5073159;28;20436;-73
2023/06/15 14:16:32;;;;;;;;;;;;;;;;;;5073402;28;19959;-70
2023/06/15 14:18:58;;;;;;;;;;;;;;;;;;5074196;28;20417;-70
2023/06/15 14:21:24;;;;;;;;;;;;;;;;;;5072901;28;20011;-70
2023/06/15 14:23:50;;;;;;;;;;;;;;;;;;5073047;28;20053;-69
2023/06/15 14:26:16;;;;;;;;;;;;;;;;;;5073504;28;20448;-69
2023/06/15 14:28:42;;;;;;;;;;;;;;;;;;5073019;28;19964;-70
2023/06/15 14:31:07;;;;;;;;;;;;;;;;;;5073530;28;19962;-68
2023/06/15 14:33:33;;;;;;;;;;;;;;;;;;5072924;28;20444;-69
2023/06/15 14:35:59;;;;;;;;;;;;;;;;;;5073685;28;19972;-69
2023/06/15 14:38:25;;;;;;;;;;;;;;;;;;5072456;28;20033;-69
2023/06/15 14:40:51;;;;;;;;;;;;;;;;;;5073338;28;19956;-69
2023/06/15 14:43:17;;;;;;;;;;;;;;;;;;5073117;28;19991;-69
2023/06/15 14:45:45;;;;;;;;;;;;;;;;;;5072985;28;20282;-71
2023/06/15 14:48:11;;;;;;;;;;;;;;;;;;5073374;28;19955;-69
2023/06/15 14:50:36;;;;;;;;;;;;;;;;;;5073384;28;19986;-72
2023/06/15 14:53:02;;;;;;;;;;;;;;;;;;5073284;28;19971;-69
2023/06/15 14:55:28;;;;;;;;;;;;;;;;;;5073875;28;20380;-70
2023/06/15 14:57:54;;;;;;;;;;;;;;;;;;5073252;28;20006;-69
2023/06/15 15:00:20;;;;;;;;;;;;;;;;;;5073283;28;19960;-70
2023/06/15 15:02:47;;;;;;;;;;;;;;;;;;5073804;28;20318;-69
2023/06/15 15:05:13;;;;;;;;;;;;;;;;;;5073548;28;19990;-69
2023/06/15 15:07:39;;;;;;;;;;;;;;;;;;5073727;28;20110;-72
2023/06/15 15:10:05;;;;;;;;;;;;;;;;;;5073401;28;19955;-71
2023/06/15 15:12:32;;;;;;;;;;;;;;;;;;5073127;28;20426;-69
2023/06/15 15:14:58;;;;;;;;;;;;;;;;;;5073129;28;19991;-70
2023/06/15 15:17:24;;;;;;;;;;;;;;;;;;5073334;28;19991;-72
2023/06/15 15:19:50;;;;;;;;;;;;;;;;;;5073031;28;19960;-71
2023/06/15 15:22:15;;;;;;;;;;;;;;;;;;5072979;28;19982;-72
2023/06/15 15:24:41;;;;;;;;;;;;;;;;;;5074702;28;20363;-68
2023/06/15 15:27:07;;;;;;;;;;;;;;;;;;5076792;28;19956;-69
2023/06/15 15:29:33;;;;;;;;;;;;;;;;;;5076999;28;19956;-71
2023/06/15 15:31:59;;;;;;;;;;;;;;;;;;5076652;28;20375;-68
2023/06/15 15:34:25;;;;;;;;;;;;;;;;;;5077075;28;19971;-71
2023/06/15 15:36:51;;;;;;;;;;;;;;;;;;5076821;28;19956;-69
2023/06/15 15:39:17;;;;;;;;;;;;;;;;;;5076477;28;19956;-70
2023/06/15 15:41:43;;;;;;;;;;;;;;;;;;5076687;28;20123;-72
2023/06/15 15:44:09;;;;;;;;;;;;;;;;;;5076181;28;20492;-69
2023/06/15 15:46:34;;;;;;;;;;;;;;;;;;5076367;28;19962;-72
2023/06/15 15:49:00;;;;;;;;;;;;;;;;;;5076887;28;20046;-70
2023/06/15 15:51:26;;;;;;;;;;;;;;;;;;5076268;28;19962;-71
2023/06/15 15:53:52;;;;;;;;;;;;;;;;;;5076262;28;19963;-69
2023/06/15 15:56:18;;;;;;;;;;;;;;;;;;5076269;28;19959;-70
2023/06/15 15:58:44;;;;;;;;;;;;;;;;;;5076415;28;19956;-68
2023/06/15 16:01:10;;;;;;;;;;;;;;;;;;5076166;28;20330;-71
2023/06/15 16:03:36;;;;;;;;;;;;;;;;;;5076031;28;20030;-72
2023/06/15 16:06:01;;;;;;;;;;;;;;;;;;5076288;28;19956;-70
2023/06/15 16:08:27;;;;;;;;;;;;;;;;;;5075987;28;19962;-70
2023/06/15 16:10:53;;;;;;;;;;;;;;;;;;5076288;28;20046;-72
2023/06/15 16:13:19;;;;;;;;;;;;;;;;;;5076238;28;19955;-71
2023/06/15 16:15:45;;;;;;;;;;;;;;;;;;5075886;28;19955;-69
2023/06/15 16:18:11;;;;;;;;;;;;;;;;;;5076075;28;19979;-70
2023/06/15 16:20:37;;;;;;;;;;;;;;;;;;5075739;28;19956;-70
2023/06/15 16:23:03;;;;;;;;;;;;;;;;;;5076180;28;20437;-70
2023/06/15 16:25:29;;;;;;;;;;;;;;;;;;5075982;28;19955;-69
2023/06/15 16:27:55;;;;;;;;;;;;;;;;;;5075673;28;19956;-71
2023/06/15 16:30:21;;;;;;;;;;;;;;;;;;5075600;28;20014;-72
2023/06/15 16:32:47;;;;;;;;;;;;;;;;;;5075526;28;19959;-67
2023/06/15 16:35:12;;;;;;;;;;;;;;;;;;5075875;28;19971;-71
2023/06/15 16:37:38;;;;;;;;;;;;;;;;;;5075432;28;19956;-68